sensor_id;sensor_type;location;lat;lon;timestamp;P1;durP1;ratioP1;P2;durP2;ratioP2
20042;SDS011;10182;52.896;6.496;2023-04-26T00:04:43;13.20;;;4.10;;
20042;SDS011;10182;52.896;6.496;2023-04-26T00:09:46;5.73;;;3.20;;
20042;SDS011;10182;52.896;6.496;2023-04-26T00:14:50;9.07;;;3.43;;
20042;SDS011;10182;52.896;6.496;2023-04-26T00:19:51;8.90;;;3.67;;
20042;SDS011;10182;52.896;6.496;2023-04-26T00:24:53;10.80;;;3.47;;
20042;SDS011;10182;52.896;6.496;2023-04-26T00:29:58;9.73;;;3.60;;
20042;SDS011;10182;52.896;6.496;2023-04-26T00:35:01;8.90;;;3.60;;
20042;SDS011;10182;52.896;6.496;2023-04-26T00:40:04;8.27;;;3.50;;
20042;SDS011;10182;52.896;6.496;2023-04-26T00:45:08;10.67;;;3.27;;
20042;SDS011;10182;52.896;6.496;2023-04-26T00:50:10;10.47;;;3.40;;
20042;SDS011;10182;52.896;6.496;2023-04-26T00:55:12;8.50;;;3.03;;
20042;SDS011;10182;52.896;6.496;2023-04-26T01:00:16;9.37;;;3.37;;
20042;SDS011;10182;52.896;6.496;2023-04-26T01:05:18;7.67;;;3.40;;
20042;SDS011;10182;52.896;6.496;2023-04-26T01:10:20;5.07;;;2.93;;
20042;SDS011;10182;52.896;6.496;2023-04-26T01:15:23;11.87;;;3.03;;
20042;SDS011;10182;52.896;6.496;2023-04-26T01:20:27;9.37;;;3.27;;
20042;SDS011;10182;52.896;6.496;2023-04-26T01:25:30;10.10;;;3.67;;
20042;SDS011;10182;52.896;6.496;2023-04-26T01:30:32;9.37;;;3.87;;
20042;SDS011;10182;52.896;6.496;2023-04-26T01:35:33;13.23;;;4.27;;
20042;SDS011;10182;52.896;6.496;2023-04-26T01:40:36;14.50;;;4.87;;
20042;SDS011;10182;52.896;6.496;2023-04-26T01:45:38;8.97;;;3.50;;
20042;SDS011;10182;52.896;6.496;2023-04-26T01:50:40;7.20;;;3.20;;
20042;SDS011;10182;52.896;6.496;2023-04-26T01:55:43;5.50;;;3.07;;
20042;SDS011;10182;52.896;6.496;2023-04-26T02:00:45;5.63;;;3.20;;
20042;SDS011;10182;52.896;6.496;2023-04-26T02:05:46;6.43;;;3.40;;
20042;SDS011;10182;52.896;6.496;2023-04-26T02:10:50;7.43;;;2.70;;
20042;SDS011;10182;52.896;6.496;2023-04-26T02:15:51;8.80;;;3.23;;
20042;SDS011;10182;52.896;6.496;2023-04-26T02:20:53;4.53;;;2.83;;
20042;SDS011;10182;52.896;6.496;2023-04-26T02:25:56;6.87;;;2.80;;
20042;SDS011;10182;52.896;6.496;2023-04-26T02:30:57;5.83;;;3.17;;
20042;SDS011;10182;52.896;6.496;2023-04-26T02:36:01;7.37;;;2.63;;
20042;SDS011;10182;52.896;6.496;2023-04-26T02:41:04;5.90;;;2.87;;
20042;SDS011;10182;52.896;6.496;2023-04-26T02:46:06;5.00;;;2.60;;
20042;SDS011;10182;52.896;6.496;2023-04-26T02:51:08;8.40;;;2.70;;
20042;SDS011;10182;52.896;6.496;2023-04-26T02:56:11;7.00;;;2.77;;
20042;SDS011;10182;52.896;6.496;2023-04-26T03:01:13;7.50;;;3.50;;
20042;SDS011;10182;52.896;6.496;2023-04-26T03:06:14;7.70;;;3.13;;
20042;SDS011;10182;52.896;6.496;2023-04-26T03:11:17;7.77;;;3.10;;
20042;SDS011;10182;52.896;6.496;2023-04-26T03:16:19;14.33;;;3.90;;
20042;SDS011;10182;52.896;6.496;2023-04-26T03:21:21;8.27;;;3.30;;
20042;SDS011;10182;52.896;6.496;2023-04-26T03:26:24;9.97;;;2.97;;
20042;SDS011;10182;52.896;6.496;2023-04-26T03:31:26;7.33;;;3.40;;
20042;SDS011;10182;52.896;6.496;2023-04-26T03:36:27;6.57;;;3.57;;
20042;SDS011;10182;52.896;6.496;2023-04-26T03:41:30;8.87;;;3.47;;
20042;SDS011;10182;52.896;6.496;2023-04-26T03:46:35;12.50;;;3.67;;
20042;SDS011;10182;52.896;6.496;2023-04-26T03:51:36;6.20;;;3.70;;
20042;SDS011;10182;52.896;6.496;2023-04-26T03:56:39;9.30;;;3.10;;
20042;SDS011;10182;52.896;6.496;2023-04-26T04:01:41;5.47;;;3.17;;
20042;SDS011;10182;52.896;6.496;2023-04-26T04:06:43;10.90;;;3.90;;
20042;SDS011;10182;52.896;6.496;2023-04-26T04:11:46;5.90;;;3.57;;
20042;SDS011;10182;52.896;6.496;2023-04-26T04:16:48;5.67;;;4.10;;
20042;SDS011;10182;52.896;6.496;2023-04-26T04:21:50;9.03;;;3.30;;
20042;SDS011;10182;52.896;6.496;2023-04-26T04:26:53;6.33;;;3.87;;
20042;SDS011;10182;52.896;6.496;2023-04-26T04:31:55;7.10;;;3.50;;
20042;SDS011;10182;52.896;6.496;2023-04-26T04:36:56;4.40;;;3.30;;
20042;SDS011;10182;52.896;6.496;2023-04-26T04:41:59;12.87;;;3.40;;
20042;SDS011;10182;52.896;6.496;2023-04-26T04:47:01;11.67;;;3.67;;
20042;SDS011;10182;52.896;6.496;2023-04-26T04:52:03;6.53;;;3.50;;
20042;SDS011;10182;52.896;6.496;2023-04-26T04:57:06;6.80;;;3.63;;
20042;SDS011;10182;52.896;6.496;2023-04-26T05:02:08;8.40;;;3.90;;
20042;SDS011;10182;52.896;6.496;2023-04-26T05:07:10;8.53;;;3.70;;
20042;SDS011;10182;52.896;6.496;2023-04-26T05:12:13;5.07;;;3.80;;
20042;SDS011;10182;52.896;6.496;2023-04-26T05:17:15;10.03;;;3.80;;
20042;SDS011;10182;52.896;6.496;2023-04-26T05:22:16;6.43;;;3.23;;
20042;SDS011;10182;52.896;6.496;2023-04-26T05:27:21;8.70;;;3.57;;
20042;SDS011;10182;52.896;6.496;2023-04-26T05:32:23;12.60;;;3.53;;
20042;SDS011;10182;52.896;6.496;2023-04-26T05:37:25;6.00;;;2.80;;
20042;SDS011;10182;52.896;6.496;2023-04-26T05:42:28;6.50;;;3.00;;
20042;SDS011;10182;52.896;6.496;2023-04-26T05:47:30;6.87;;;2.93;;
20042;SDS011;10182;52.896;6.496;2023-04-26T05:52:31;6.27;;;2.67;;
20042;SDS011;10182;52.896;6.496;2023-04-26T05:57:35;8.33;;;3.33;;
20042;SDS011;10182;52.896;6.496;2023-04-26T06:02:36;7.93;;;2.93;;
20042;SDS011;10182;52.896;6.496;2023-04-26T06:07:38;6.87;;;2.83;;
20042;SDS011;10182;52.896;6.496;2023-04-26T06:12:41;12.53;;;3.30;;
20042;SDS011;10182;52.896;6.496;2023-04-26T06:17:43;4.13;;;2.47;;
20042;SDS011;10182;52.896;6.496;2023-04-26T06:22:45;10.00;;;2.77;;
20042;SDS011;10182;52.896;6.496;2023-04-26T06:27:48;5.80;;;2.73;;
20042;SDS011;10182;52.896;6.496;2023-04-26T06:32:50;5.17;;;2.20;;
20042;SDS011;10182;52.896;6.496;2023-04-26T06:37:51;5.40;;;2.77;;
20042;SDS011;10182;52.896;6.496;2023-04-26T06:42:54;5.77;;;2.53;;
20042;SDS011;10182;52.896;6.496;2023-04-26T06:47:56;5.70;;;2.60;;
20042;SDS011;10182;52.896;6.496;2023-04-26T06:52:59;6.07;;;2.70;;
20042;SDS011;10182;52.896;6.496;2023-04-26T06:58:02;5.40;;;2.30;;
20042;SDS011;10182;52.896;6.496;2023-04-26T07:03:04;8.43;;;2.43;;
20042;SDS011;10182;52.896;6.496;2023-04-26T07:08:06;11.30;;;2.50;;
20042;SDS011;10182;52.896;6.496;2023-04-26T07:13:09;7.77;;;2.40;;
20042;SDS011;10182;52.896;6.496;2023-04-26T07:18:11;7.07;;;3.00;;
20042;SDS011;10182;52.896;6.496;2023-04-26T07:23:12;6.90;;;2.87;;
20042;SDS011;10182;52.896;6.496;2023-04-26T07:28:16;5.47;;;2.30;;
20042;SDS011;10182;52.896;6.496;2023-04-26T07:33:17;9.33;;;2.47;;
20042;SDS011;10182;52.896;6.496;2023-04-26T07:38:19;8.67;;;3.07;;
20042;SDS011;10182;52.896;6.496;2023-04-26T07:43:22;4.73;;;2.43;;
20042;SDS011;10182;52.896;6.496;2023-04-26T07:48:24;4.57;;;2.20;;
20042;SDS011;10182;52.896;6.496;2023-04-26T07:53:26;5.70;;;2.80;;
20042;SDS011;10182;52.896;6.496;2023-04-26T07:58:29;5.50;;;2.17;;
20042;SDS011;10182;52.896;6.496;2023-04-26T08:03:32;4.60;;;2.03;;
20042;SDS011;10182;52.896;6.496;2023-04-26T08:08:33;6.10;;;2.40;;
20042;SDS011;10182;52.896;6.496;2023-04-26T08:13:43;3.13;;;2.20;;
20042;SDS011;10182;52.896;6.496;2023-04-26T08:18:45;7.07;;;2.50;;
20042;SDS011;10182;52.896;6.496;2023-04-26T08:23:47;4.07;;;2.07;;
20042;SDS011;10182;52.896;6.496;2023-04-26T08:28:50;6.27;;;2.10;;
20042;SDS011;10182;52.896;6.496;2023-04-26T08:33:51;6.50;;;2.17;;
20042;SDS011;10182;52.896;6.496;2023-04-26T08:38:53;6.30;;;1.83;;
20042;SDS011;10182;52.896;6.496;2023-04-26T08:43:58;5.97;;;2.47;;
20042;SDS011;10182;52.896;6.496;2023-04-26T08:49:04;6.90;;;2.00;;
20042;SDS011;10182;52.896;6.496;2023-04-26T08:54:14;3.23;;;1.80;;
20042;SDS011;10182;52.896;6.496;2023-04-26T08:59:19;5.27;;;2.07;;
20042;SDS011;10182;52.896;6.496;2023-04-26T09:04:21;5.03;;;2.07;;
20042;SDS011;10182;52.896;6.496;2023-04-26T09:09:23;4.83;;;2.50;;
20042;SDS011;10182;52.896;6.496;2023-04-26T09:14:29;5.50;;;2.30;;
20042;SDS011;10182;52.896;6.496;2023-04-26T09:19:33;2.53;;;1.83;;
20042;SDS011;10182;52.896;6.496;2023-04-26T09:24:45;6.83;;;1.93;;
20042;SDS011;10182;52.896;6.496;2023-04-26T09:29:59;4.40;;;2.33;;
20042;SDS011;10182;52.896;6.496;2023-04-26T09:35:05;4.60;;;1.70;;
20042;SDS011;10182;52.896;6.496;2023-04-26T09:40:08;5.83;;;2.17;;
20042;SDS011;10182;52.896;6.496;2023-04-26T09:45:19;9.53;;;2.40;;
20042;SDS011;10182;52.896;6.496;2023-04-26T09:50:24;3.53;;;2.10;;
20042;SDS011;10182;52.896;6.496;2023-04-26T09:55:28;4.40;;;2.00;;
20042;SDS011;10182;52.896;6.496;2023-04-26T10:00:31;4.40;;;2.10;;
20042;SDS011;10182;52.896;6.496;2023-04-26T10:05:35;9.77;;;3.13;;
20042;SDS011;10182;52.896;6.496;2023-04-26T10:10:38;5.30;;;2.80;;
20042;SDS011;10182;52.896;6.496;2023-04-26T10:15:41;2.93;;;2.53;;
20042;SDS011;10182;52.896;6.496;2023-04-26T10:20:45;6.47;;;3.10;;
20042;SDS011;10182;52.896;6.496;2023-04-26T10:25:52;7.50;;;2.97;;
20042;SDS011;10182;52.896;6.496;2023-04-26T10:30:57;7.40;;;3.10;;
20042;SDS011;10182;52.896;6.496;2023-04-26T10:36:01;3.27;;;2.33;;
20042;SDS011;10182;52.896;6.496;2023-04-26T10:46:39;5.80;;;2.33;;
20042;SDS011;10182;52.896;6.496;2023-04-26T10:57:10;9.43;;;2.60;;
20042;SDS011;10182;52.896;6.496;2023-04-26T11:02:13;4.27;;;2.50;;
20042;SDS011;10182;52.896;6.496;2023-04-26T11:07:15;5.33;;;2.03;;
20042;SDS011;10182;52.896;6.496;2023-04-26T11:12:16;7.87;;;2.47;;
20042;SDS011;10182;52.896;6.496;2023-04-26T11:17:20;5.20;;;2.60;;
20042;SDS011;10182;52.896;6.496;2023-04-26T11:22:21;6.13;;;2.50;;
20042;SDS011;10182;52.896;6.496;2023-04-26T11:27:23;5.07;;;1.80;;
20042;SDS011;10182;52.896;6.496;2023-04-26T11:32:29;4.83;;;2.30;;
20042;SDS011;10182;52.896;6.496;2023-04-26T11:37:32;7.03;;;2.33;;
20042;SDS011;10182;52.896;6.496;2023-04-26T11:42:34;6.50;;;2.93;;
20042;SDS011;10182;52.896;6.496;2023-04-26T11:47:37;6.23;;;2.83;;
20042;SDS011;10182;52.896;6.496;2023-04-26T11:52:40;4.43;;;2.60;;
20042;SDS011;10182;52.896;6.496;2023-04-26T11:57:42;9.13;;;2.80;;
20042;SDS011;10182;52.896;6.496;2023-04-26T12:02:45;12.13;;;3.20;;
20042;SDS011;10182;52.896;6.496;2023-04-26T12:07:50;4.87;;;2.70;;
20042;SDS011;10182;52.896;6.496;2023-04-26T12:12:54;4.83;;;3.10;;
20042;SDS011;10182;52.896;6.496;2023-04-26T12:17:59;8.27;;;3.00;;
20042;SDS011;10182;52.896;6.496;2023-04-26T12:23:06;5.63;;;2.77;;
20042;SDS011;10182;52.896;6.496;2023-04-26T12:28:09;3.90;;;2.80;;
20042;SDS011;10182;52.896;6.496;2023-04-26T12:33:14;5.70;;;3.10;;
20042;SDS011;10182;52.896;6.496;2023-04-26T12:38:17;7.63;;;3.60;;
20042;SDS011;10182;52.896;6.496;2023-04-26T12:43:19;5.37;;;3.40;;
20042;SDS011;10182;52.896;6.496;2023-04-26T12:48:24;7.80;;;3.27;;
20042;SDS011;10182;52.896;6.496;2023-04-26T12:53:26;14.70;;;3.70;;
20042;SDS011;10182;52.896;6.496;2023-04-26T12:58:29;9.90;;;3.60;;
20042;SDS011;10182;52.896;6.496;2023-04-26T13:03:32;7.90;;;3.63;;
20042;SDS011;10182;52.896;6.496;2023-04-26T13:08:33;10.90;;;3.40;;
20042;SDS011;10182;52.896;6.496;2023-04-26T13:13:35;4.00;;;3.17;;
20042;SDS011;10182;52.896;6.496;2023-04-26T13:18:38;7.43;;;3.00;;
20042;SDS011;10182;52.896;6.496;2023-04-26T13:23:40;3.13;;;2.80;;
20042;SDS011;10182;52.896;6.496;2023-04-26T13:28:42;3.83;;;2.63;;
20042;SDS011;10182;52.896;6.496;2023-04-26T13:33:45;3.37;;;2.10;;
20042;SDS011;10182;52.896;6.496;2023-04-26T13:38:48;6.33;;;2.70;;
20042;SDS011;10182;52.896;6.496;2023-04-26T13:43:50;7.83;;;2.70;;
20042;SDS011;10182;52.896;6.496;2023-04-26T13:48:53;6.83;;;2.97;;
20042;SDS011;10182;52.896;6.496;2023-04-26T13:53:55;4.37;;;2.53;;
20042;SDS011;10182;52.896;6.496;2023-04-26T13:58:58;3.47;;;2.90;;
20042;SDS011;10182;52.896;6.496;2023-04-26T14:04:04;6.03;;;2.63;;
20042;SDS011;10182;52.896;6.496;2023-04-26T14:09:06;4.93;;;3.00;;
20042;SDS011;10182;52.896;6.496;2023-04-26T14:14:08;8.07;;;3.17;;
20042;SDS011;10182;52.896;6.496;2023-04-26T14:19:12;4.97;;;2.50;;
20042;SDS011;10182;52.896;6.496;2023-04-26T14:24:15;7.77;;;2.63;;
20042;SDS011;10182;52.896;6.496;2023-04-26T14:29:16;5.93;;;2.73;;
20042;SDS011;10182;52.896;6.496;2023-04-26T14:34:19;5.77;;;3.20;;
20042;SDS011;10182;52.896;6.496;2023-04-26T14:39:22;5.20;;;3.37;;
20042;SDS011;10182;52.896;6.496;2023-04-26T14:44:24;4.93;;;2.50;;
20042;SDS011;10182;52.896;6.496;2023-04-26T14:49:27;5.03;;;2.73;;
20042;SDS011;10182;52.896;6.496;2023-04-26T14:54:29;5.67;;;2.57;;
20042;SDS011;10182;52.896;6.496;2023-04-26T14:59:31;5.73;;;2.77;;
20042;SDS011;10182;52.896;6.496;2023-04-26T15:04:35;6.13;;;2.30;;
20042;SDS011;10182;52.896;6.496;2023-04-26T15:09:37;5.57;;;2.60;;
20042;SDS011;10182;52.896;6.496;2023-04-26T15:14:38;4.23;;;2.40;;
20042;SDS011;10182;52.896;6.496;2023-04-26T15:19:41;6.53;;;2.93;;
20042;SDS011;10182;52.896;6.496;2023-04-26T15:24:43;8.03;;;2.57;;
20042;SDS011;10182;52.896;6.496;2023-04-26T15:29:45;4.50;;;2.33;;
20042;SDS011;10182;52.896;6.496;2023-04-26T15:34:48;6.43;;;2.83;;
20042;SDS011;10182;52.896;6.496;2023-04-26T15:39:50;5.87;;;2.73;;
20042;SDS011;10182;52.896;6.496;2023-04-26T15:44:52;4.47;;;2.27;;
20042;SDS011;10182;52.896;6.496;2023-04-26T15:49:55;7.93;;;3.30;;
20042;SDS011;10182;52.896;6.496;2023-04-26T15:55:02;6.17;;;3.73;;
20042;SDS011;10182;52.896;6.496;2023-04-26T16:00:06;10.67;;;3.00;;
20042;SDS011;10182;52.896;6.496;2023-04-26T16:05:14;3.50;;;2.40;;
20042;SDS011;10182;52.896;6.496;2023-04-26T16:10:16;4.13;;;2.40;;
20042;SDS011;10182;52.896;6.496;2023-04-26T16:15:18;5.43;;;2.17;;
20042;SDS011;10182;52.896;6.496;2023-04-26T16:20:21;3.73;;;2.20;;
20042;SDS011;10182;52.896;6.496;2023-04-26T16:25:22;7.90;;;2.50;;
20042;SDS011;10182;52.896;6.496;2023-04-26T16:30:24;5.67;;;2.70;;
20042;SDS011;10182;52.896;6.496;2023-04-26T16:35:27;4.17;;;2.13;;
20042;SDS011;10182;52.896;6.496;2023-04-26T16:40:29;5.47;;;2.47;;
20042;SDS011;10182;52.896;6.496;2023-04-26T16:45:31;5.43;;;2.70;;
20042;SDS011;10182;52.896;6.496;2023-04-26T16:50:34;5.07;;;2.43;;
20042;SDS011;10182;52.896;6.496;2023-04-26T16:55:36;6.10;;;2.50;;
20042;SDS011;10182;52.896;6.496;2023-04-26T17:00:37;6.20;;;3.10;;
20042;SDS011;10182;52.896;6.496;2023-04-26T17:05:41;4.87;;;2.70;;
20042;SDS011;10182;52.896;6.496;2023-04-26T17:10:49;5.47;;;2.53;;
20042;SDS011;10182;52.896;6.496;2023-04-26T17:15:52;3.10;;;2.50;;
20042;SDS011;10182;52.896;6.496;2023-04-26T17:20:55;6.17;;;2.83;;
20042;SDS011;10182;52.896;6.496;2023-04-26T17:25:57;11.57;;;3.20;;
20042;SDS011;10182;52.896;6.496;2023-04-26T17:31:02;5.93;;;2.63;;
20042;SDS011;10182;52.896;6.496;2023-04-26T17:36:06;6.13;;;2.83;;
20042;SDS011;10182;52.896;6.496;2023-04-26T17:41:09;5.43;;;2.67;;
20042;SDS011;10182;52.896;6.496;2023-04-26T17:46:11;6.40;;;2.90;;
20042;SDS011;10182;52.896;6.496;2023-04-26T17:51:14;6.37;;;3.00;;
20042;SDS011;10182;52.896;6.496;2023-04-26T17:56:16;5.97;;;2.70;;
20042;SDS011;10182;52.896;6.496;2023-04-26T18:01:18;8.20;;;2.63;;
20042;SDS011;10182;52.896;6.496;2023-04-26T18:06:21;5.47;;;2.43;;
20042;SDS011;10182;52.896;6.496;2023-04-26T18:11:25;5.40;;;2.50;;
20042;SDS011;10182;52.896;6.496;2023-04-26T18:16:28;3.27;;;2.37;;
20042;SDS011;10182;52.896;6.496;2023-04-26T18:21:32;6.97;;;2.90;;
20042;SDS011;10182;52.896;6.496;2023-04-26T18:26:33;6.97;;;2.63;;
20042;SDS011;10182;52.896;6.496;2023-04-26T18:31:37;4.57;;;2.43;;
20042;SDS011;10182;52.896;6.496;2023-04-26T18:36:40;7.60;;;3.03;;
20042;SDS011;10182;52.896;6.496;2023-04-26T18:41:42;5.13;;;2.80;;
20042;SDS011;10182;52.896;6.496;2023-04-26T18:46:44;3.93;;;2.37;;
20042;SDS011;10182;52.896;6.496;2023-04-26T18:51:47;5.93;;;2.80;;
20042;SDS011;10182;52.896;6.496;2023-04-26T18:56:48;6.57;;;3.43;;
20042;SDS011;10182;52.896;6.496;2023-04-26T19:01:50;3.30;;;2.50;;
20042;SDS011;10182;52.896;6.496;2023-04-26T19:06:53;5.03;;;2.87;;
20042;SDS011;10182;52.896;6.496;2023-04-26T19:11:55;8.57;;;6.37;;
20042;SDS011;10182;52.896;6.496;2023-04-26T19:16:56;7.40;;;2.90;;
20042;SDS011;10182;52.896;6.496;2023-04-26T19:22:00;5.37;;;3.27;;
20042;SDS011;10182;52.896;6.496;2023-04-26T19:27:02;5.60;;;3.10;;
20042;SDS011;10182;52.896;6.496;2023-04-26T19:32:04;4.97;;;2.87;;
20042;SDS011;10182;52.896;6.496;2023-04-26T19:37:07;5.63;;;3.40;;
20042;SDS011;10182;52.896;6.496;2023-04-26T19:42:09;4.10;;;3.10;;
20042;SDS011;10182;52.896;6.496;2023-04-26T19:47:11;6.73;;;3.17;;
20042;SDS011;10182;52.896;6.496;2023-04-26T19:52:14;6.27;;;3.97;;
20042;SDS011;10182;52.896;6.496;2023-04-26T19:57:16;6.10;;;3.03;;
20042;SDS011;10182;52.896;6.496;2023-04-26T20:02:17;7.07;;;3.27;;
20042;SDS011;10182;52.896;6.496;2023-04-26T20:07:21;9.20;;;3.30;;
20042;SDS011;10182;52.896;6.496;2023-04-26T20:12:23;7.47;;;3.70;;
20042;SDS011;10182;52.896;6.496;2023-04-26T20:17:25;6.60;;;3.50;;
20042;SDS011;10182;52.896;6.496;2023-04-26T20:22:28;6.37;;;3.77;;
20042;SDS011;10182;52.896;6.496;2023-04-26T20:27:32;3.80;;;3.40;;
20042;SDS011;10182;52.896;6.496;2023-04-26T20:32:34;12.40;;;4.27;;
20042;SDS011;10182;52.896;6.496;2023-04-26T20:37:37;6.30;;;4.13;;
20042;SDS011;10182;52.896;6.496;2023-04-26T20:42:39;5.63;;;3.80;;
20042;SDS011;10182;52.896;6.496;2023-04-26T20:47:40;4.63;;;3.90;;
20042;SDS011;10182;52.896;6.496;2023-04-26T20:52:43;8.70;;;4.97;;
20042;SDS011;10182;52.896;6.496;2023-04-26T20:57:45;12.03;;;7.50;;
20042;SDS011;10182;52.896;6.496;2023-04-26T21:02:47;8.37;;;5.90;;
20042;SDS011;10182;52.896;6.496;2023-04-26T21:07:50;5.37;;;4.43;;
20042;SDS011;10182;52.896;6.496;2023-04-26T21:12:52;7.33;;;5.33;;
20042;SDS011;10182;52.896;6.496;2023-04-26T21:17:54;7.17;;;5.17;;
20042;SDS011;10182;52.896;6.496;2023-04-26T21:22:57;9.20;;;4.93;;
20042;SDS011;10182;52.896;6.496;2023-04-26T21:27:58;6.43;;;4.93;;
20042;SDS011;10182;52.896;6.496;2023-04-26T21:33:00;7.07;;;5.17;;
20042;SDS011;10182;52.896;6.496;2023-04-26T21:38:03;11.70;;;6.20;;
20042;SDS011;10182;52.896;6.496;2023-04-26T21:43:05;8.03;;;6.37;;
20042;SDS011;10182;52.896;6.496;2023-04-26T21:48:07;15.87;;;7.63;;
20042;SDS011;10182;52.896;6.496;2023-04-26T21:53:10;13.70;;;7.87;;
20042;SDS011;10182;52.896;6.496;2023-04-26T21:58:11;8.57;;;6.53;;
20042;SDS011;10182;52.896;6.496;2023-04-26T22:03:13;12.63;;;7.37;;
20042;SDS011;10182;52.896;6.496;2023-04-26T22:08:16;14.83;;;8.77;;
20042;SDS011;10182;52.896;6.496;2023-04-26T22:13:18;42.80;;;23.13;;
20042;SDS011;10182;52.896;6.496;2023-04-26T22:18:20;19.47;;;12.00;;
20042;SDS011;10182;52.896;6.496;2023-04-26T22:23:23;14.60;;;9.07;;
20042;SDS011;10182;52.896;6.496;2023-04-26T22:28:25;9.67;;;6.80;;
20042;SDS011;10182;52.896;6.496;2023-04-26T22:33:26;11.07;;;7.60;;
20042;SDS011;10182;52.896;6.496;2023-04-26T22:38:30;10.53;;;7.87;;
20042;SDS011;10182;52.896;6.496;2023-04-26T22:43:31;10.97;;;7.43;;
20042;SDS011;10182;52.896;6.496;2023-04-26T22:48:33;13.60;;;8.00;;
20042;SDS011;10182;52.896;6.496;2023-04-26T22:53:36;11.40;;;7.63;;
20042;SDS011;10182;52.896;6.496;2023-04-26T22:58:38;13.93;;;7.37;;
20042;SDS011;10182;52.896;6.496;2023-04-26T23:03:39;8.73;;;7.03;;
20042;SDS011;10182;52.896;6.496;2023-04-26T23:08:43;10.30;;;7.30;;
20042;SDS011;10182;52.896;6.496;2023-04-26T23:13:47;12.63;;;7.60;;
20042;SDS011;10182;52.896;6.496;2023-04-26T23:18:51;7.87;;;6.73;;
20042;SDS011;10182;52.896;6.496;2023-04-26T23:23:54;10.23;;;7.17;;
20042;SDS011;10182;52.896;6.496;2023-04-26T23:28:56;9.93;;;6.90;;
20042;SDS011;10182;52.896;6.496;2023-04-26T23:33:57;11.30;;;6.93;;
20042;SDS011;10182;52.896;6.496;2023-04-26T23:39:00;10.87;;;6.87;;
20042;SDS011;10182;52.896;6.496;2023-04-26T23:44:02;11.10;;;6.90;;
20042;SDS011;10182;52.896;6.496;2023-04-26T23:49:04;12.57;;;6.57;;
20042;SDS011;10182;52.896;6.496;2023-04-26T23:54:07;12.10;;;6.83;;
20042;SDS011;10182;52.896;6.496;2023-04-26T23:59:09;10.07;;;7.87;;
